createdAt,value
2022-08-25T00:00:22.448Z,19.53
2022-08-25T00:02:55.322Z,19.54
2022-08-25T00:05:32.406Z,19.55
2022-08-25T00:08:06.165Z,19.52
2022-08-25T00:10:38.335Z,19.49
2022-08-25T00:13:08.077Z,19.45
2022-08-25T00:15:36.590Z,19.41
2022-08-25T00:18:05.709Z,19.39
2022-08-25T00:20:48.904Z,19.41
2022-08-25T00:23:17.755Z,19.42
2022-08-25T00:25:45.692Z,19.44
2022-08-25T00:28:15.224Z,19.42
2022-08-25T00:30:44.421Z,19.43
2022-08-25T00:33:12.344Z,19.45
2022-08-25T00:35:42.469Z,19.41
2022-08-25T00:38:11.284Z,19.50
2022-08-25T00:40:41.676Z,19.49
2022-08-25T00:43:09.850Z,19.47
2022-08-25T00:45:38.555Z,19.49
2022-08-25T00:48:07.075Z,19.48
2022-08-25T00:50:35.384Z,19.43
2022-08-25T00:53:05.778Z,19.45
2022-08-25T00:55:40.983Z,19.40
2022-08-25T00:58:16.124Z,19.32
2022-08-25T01:00:52.249Z,19.32
2022-08-25T01:03:23.808Z,19.37
2022-08-25T01:05:55.499Z,19.38
2022-08-25T01:08:29.347Z,19.32
2022-08-25T01:11:06.624Z,19.35
2022-08-25T01:13:47.607Z,19.39
2022-08-25T01:16:17.333Z,19.44
2022-08-25T01:18:52.579Z,19.49
2022-08-25T01:21:23.686Z,19.48
2022-08-25T01:23:53.005Z,19.47
2022-08-25T01:26:30.525Z,19.47
2022-08-25T01:29:22.023Z,19.44
2022-08-25T01:31:57.797Z,19.42
2022-08-25T01:34:30.949Z,19.36
2022-08-25T01:37:00.160Z,19.37
2022-08-25T01:39:31.249Z,19.32
2022-08-25T01:42:09.741Z,19.32
2022-08-25T01:44:43.611Z,19.31
2022-08-25T01:47:13.812Z,19.24
2022-08-25T01:49:41.898Z,19.21
2022-08-25T01:52:25.451Z,19.20
2022-08-25T01:54:53.411Z,19.10
2022-08-25T01:57:22.475Z,19.07
2022-08-25T01:59:50.576Z,19.05
2022-08-25T02:02:18.614Z,19.08
2022-08-25T02:04:46.432Z,19.10
2022-08-25T02:07:14.104Z,19.13
2022-08-25T02:09:42.015Z,19.14
2022-08-25T02:12:20.342Z,19.14
2022-08-25T02:14:48.940Z,19.13
2022-08-25T02:17:17.569Z,19.13
2022-08-25T02:19:45.345Z,19.14
2022-08-25T02:22:13.360Z,19.13
2022-08-25T02:24:44.390Z,19.13
2022-08-25T02:27:12.205Z,19.15
2022-08-25T02:29:40.456Z,19.17
2022-08-25T02:32:09.134Z,19.19
2022-08-25T02:34:41.422Z,19.21
2022-08-25T02:37:09.561Z,19.17
2022-08-25T02:39:37.527Z,19.17
2022-08-25T02:42:07.084Z,19.17
2022-08-25T02:44:35.688Z,19.16
2022-08-25T02:47:04.002Z,19.19
2022-08-25T02:49:33.212Z,19.20
2022-08-25T02:52:01.755Z,19.21
2022-08-25T02:54:30.023Z,19.17
2022-08-25T02:56:58.086Z,19.21
2022-08-25T02:59:28.475Z,19.19
2022-08-25T03:01:56.544Z,19.21
2022-08-25T03:04:24.876Z,19.24
2022-08-25T03:06:52.732Z,19.24
2022-08-25T03:09:21.133Z,19.23
2022-08-25T03:11:49.238Z,19.24
2022-08-25T03:14:17.602Z,19.23
2022-08-25T03:16:46.696Z,19.19
2022-08-25T03:19:15.393Z,19.18
2022-08-25T03:21:45.941Z,19.17
2022-08-25T03:24:14.500Z,19.20
2022-08-25T03:26:54.445Z,19.18
2022-08-25T03:29:33.915Z,19.17
2022-08-25T03:32:02.202Z,19.12
2022-08-25T03:34:30.817Z,19.12
2022-08-25T03:36:59.519Z,19.08
2022-08-25T03:39:27.924Z,19.12
2022-08-25T03:41:55.910Z,19.12
2022-08-25T03:44:23.865Z,19.12
2022-08-25T03:46:52.924Z,19.13
2022-08-25T03:49:23.961Z,19.13
2022-08-25T03:51:53.815Z,19.14
2022-08-25T03:54:26.059Z,19.17
2022-08-25T03:56:55.030Z,19.18
2022-08-25T03:59:22.707Z,19.19
2022-08-25T04:01:54.724Z,19.20
2022-08-25T04:04:23.836Z,19.23
2022-08-25T04:06:51.912Z,19.21
2022-08-25T04:09:19.913Z,19.20
2022-08-25T04:11:47.744Z,19.24
2022-08-25T04:14:23.283Z,19.22
2022-08-25T04:16:51.409Z,19.26
2022-08-25T04:19:20.626Z,19.26
2022-08-25T04:21:48.694Z,19.25
2022-08-25T04:24:16.823Z,19.24
2022-08-25T04:26:49.821Z,19.27
2022-08-25T04:29:23.733Z,19.29
2022-08-25T04:31:53.050Z,19.28
2022-08-25T04:34:29.664Z,19.28
2022-08-25T04:37:05.539Z,19.30
2022-08-25T04:39:34.114Z,19.34
2022-08-25T04:42:02.387Z,19.39
2022-08-25T04:44:31.958Z,19.42
2022-08-25T04:47:01.331Z,19.39
2022-08-25T04:49:29.630Z,19.48
2022-08-25T04:51:57.927Z,19.48
2022-08-25T04:54:25.836Z,19.50
2022-08-25T04:56:58.271Z,19.53
2022-08-25T04:59:30.021Z,19.52
2022-08-25T05:02:02.659Z,19.52
2022-08-25T05:04:32.827Z,19.52
2022-08-25T05:07:01.215Z,19.55
2022-08-25T05:09:29.266Z,19.56
2022-08-25T05:12:02.910Z,19.58
2022-08-25T05:14:32.627Z,19.60
2022-08-25T05:17:01.517Z,19.62
2022-08-25T05:19:29.269Z,19.62
2022-08-25T05:21:58.017Z,19.64
2022-08-25T05:24:26.820Z,19.66
2022-08-25T05:26:54.482Z,19.70
2022-08-25T05:29:22.394Z,19.73
2022-08-25T05:31:51.013Z,19.77
2022-08-25T05:34:20.324Z,19.73
2022-08-25T05:36:48.973Z,19.86
2022-08-25T05:39:16.775Z,19.89
2022-08-25T05:41:44.594Z,19.93
2022-08-25T05:44:12.971Z,19.96
2022-08-25T05:46:40.752Z,19.99
2022-08-25T05:49:08.523Z,20.03
2022-08-25T05:51:36.263Z,20.03
2022-08-25T05:54:04.391Z,20.04
2022-08-25T05:56:32.211Z,20.03
2022-08-25T05:58:59.968Z,20.07
2022-08-25T06:01:48.362Z,20.08
2022-08-25T06:04:18.040Z,20.13
2022-08-25T06:06:45.891Z,20.17
2022-08-25T06:09:15.337Z,20.21
2022-08-25T06:11:43.105Z,20.23
2022-08-25T06:14:11.650Z,20.28
2022-08-25T06:16:40.442Z,20.34
2022-08-25T06:19:10.518Z,20.38
2022-08-25T06:21:41.522Z,20.46
2022-08-25T06:24:15.151Z,20.52
2022-08-25T06:26:44.333Z,20.59
2022-08-25T06:29:16.327Z,20.65
2022-08-25T06:31:46.680Z,20.69
2022-08-25T06:34:14.475Z,20.69
2022-08-25T06:36:42.263Z,20.69
2022-08-25T06:39:11.339Z,20.71
2022-08-25T06:41:39.313Z,20.74
2022-08-25T06:44:07.152Z,20.75
2022-08-25T06:46:36.548Z,20.82
2022-08-25T06:49:06.890Z,20.86
2022-08-25T06:51:36.285Z,20.91
2022-08-25T06:54:06.696Z,20.99
2022-08-25T06:56:34.857Z,21.09
2022-08-25T06:59:05.366Z,21.18
2022-08-25T07:01:34.265Z,21.23
2022-08-25T07:04:10.048Z,21.28
2022-08-25T07:06:40.455Z,21.27
2022-08-25T07:09:13.247Z,21.27
2022-08-25T07:11:42.884Z,21.30
2022-08-25T07:14:13.805Z,21.34
2022-08-25T07:16:47.198Z,21.35
2022-08-25T07:19:21.005Z,21.44
2022-08-25T07:21:52.969Z,21.48
2022-08-25T07:24:21.788Z,21.55
2022-08-25T07:26:49.913Z,21.63
2022-08-25T07:29:31.952Z,21.73
2022-08-25T07:32:02.588Z,21.80
2022-08-25T07:34:52.474Z,21.90
2022-08-25T07:40:16.156Z,22.24
2022-08-25T07:42:46.158Z,22.30
2022-08-25T07:45:17.396Z,22.33
2022-08-25T07:47:51.568Z,22.37
2022-08-25T07:50:20.951Z,22.41
2022-08-25T07:52:52.215Z,22.45
2022-08-25T07:55:30.536Z,22.53
2022-08-25T07:57:59.933Z,22.60
2022-08-25T08:00:30.202Z,22.66
2022-08-25T08:02:59.684Z,22.74
2022-08-25T08:05:28.890Z,22.80
2022-08-25T08:07:56.976Z,22.87
2022-08-25T08:10:47.791Z,22.89
2022-08-25T08:13:18.027Z,22.95
2022-08-25T08:15:47.549Z,23.01
2022-08-25T08:18:16.144Z,23.08
2022-08-25T08:20:49.255Z,23.21
2022-08-25T08:23:17.982Z,23.32
2022-08-25T08:25:45.842Z,23.38
2022-08-25T08:28:13.597Z,23.48
2022-08-25T08:30:53.545Z,23.58
2022-08-25T08:33:24.248Z,23.68
2022-08-25T08:36:07.872Z,23.71
2022-08-25T08:38:40.526Z,23.74
2022-08-25T08:42:13.168Z,23.80
2022-08-25T08:44:47.111Z,23.93
2022-08-25T08:47:39.167Z,24.04
2022-08-25T08:50:32.911Z,24.15
2022-08-25T08:53:16.430Z,24.26
2022-08-25T08:55:52.815Z,24.32
2022-08-25T08:58:46.032Z,24.41
2022-08-25T09:01:31.317Z,24.38
2022-08-25T09:04:29.210Z,24.37
2022-08-25T09:07:01.195Z,24.39
2022-08-25T09:09:35.460Z,24.45
2022-08-25T09:12:31.949Z,24.59
2022-08-25T09:15:57.522Z,24.61
2022-08-25T09:18:51.063Z,24.60
2022-08-25T09:21:37.239Z,24.52
2022-08-25T09:24:42.883Z,24.61
2022-08-25T09:27:58.464Z,24.69
2022-08-25T09:30:37.934Z,24.78
2022-08-25T09:33:07.190Z,24.91
2022-08-25T09:35:40.853Z,25.10
2022-08-25T09:38:12.344Z,25.29
2022-08-25T09:40:48.427Z,25.41
2022-08-25T09:43:43.479Z,25.56
2022-08-25T09:46:27.970Z,25.59
2022-08-25T09:49:11.033Z,25.60
2022-08-25T09:51:43.007Z,25.67
2022-08-25T09:54:13.839Z,25.74
2022-08-25T09:57:01.988Z,25.88
2022-08-25T09:59:35.648Z,26.03
2022-08-25T10:02:23.706Z,26.12
2022-08-25T10:04:52.364Z,26.21
2022-08-25T10:07:52.018Z,26.57
2022-08-25T10:10:38.282Z,26.87
2022-08-25T10:13:40.106Z,27.12
2022-08-25T10:16:24.867Z,27.24
2022-08-25T10:19:05.604Z,27.24
2022-08-25T10:21:36.438Z,27.22
2022-08-25T10:24:06.677Z,27.34
2022-08-25T10:26:55.126Z,27.50
2022-08-25T10:29:53.275Z,27.59
2022-08-25T10:32:57.644Z,27.56
2022-08-25T10:35:45.584Z,27.60
2022-08-25T10:38:42.983Z,27.66
2022-08-25T10:42:06.737Z,27.70
2022-08-25T10:45:01.008Z,27.72
2022-08-25T10:48:00.463Z,27.71
2022-08-25T10:50:45.523Z,27.73
2022-08-25T10:53:21.553Z,27.74
2022-08-25T10:56:12.769Z,27.69
2022-08-25T10:59:13.061Z,27.70
2022-08-25T11:02:03.394Z,27.78
2022-08-25T11:04:55.906Z,28.02
2022-08-25T11:07:38.181Z,28.13
2022-08-25T11:10:35.772Z,28.06
2022-08-25T11:13:18.261Z,27.98
2022-08-25T11:16:16.495Z,27.85
2022-08-25T11:19:07.499Z,27.81
2022-08-25T11:21:54.118Z,27.95
2022-08-25T11:24:30.498Z,27.95
2022-08-25T11:26:59.933Z,27.92
2022-08-25T11:29:35.401Z,27.87
2022-08-25T11:32:05.262Z,27.94
2022-08-25T11:34:42.995Z,27.95
2022-08-25T11:37:28.072Z,28.11
2022-08-25T11:40:40.541Z,28.36
2022-08-25T11:43:47.223Z,28.34
2022-08-25T11:46:50.660Z,28.23
2022-08-25T11:49:54.587Z,28.12
2022-08-25T11:52:34.726Z,28.06
2022-08-25T11:55:13.589Z,28.04
2022-08-25T11:57:46.790Z,28.01
2022-08-25T12:00:42.682Z,28.04
2022-08-25T12:03:31.983Z,28.18
2022-08-25T12:06:28.398Z,28.42
2022-08-25T12:09:03.546Z,28.50
2022-08-25T12:11:54.721Z,28.69
2022-08-25T12:14:22.419Z,28.76
2022-08-25T12:16:57.062Z,28.77
2022-08-25T12:19:56.758Z,28.65
2022-08-25T12:22:24.423Z,28.72
2022-08-25T12:25:21.804Z,28.94
2022-08-25T12:28:09.463Z,29.07
2022-08-25T12:31:00.363Z,28.88
2022-08-25T12:33:49.562Z,28.74
2022-08-25T12:36:33.873Z,28.62
2022-08-25T12:39:29.051Z,28.51
2022-08-25T12:42:04.642Z,28.52
2022-08-25T12:44:48.048Z,28.56
2022-08-25T12:47:19.963Z,28.49
2022-08-25T12:49:51.977Z,28.49
2022-08-25T12:52:28.085Z,28.54
2022-08-25T12:55:03.660Z,28.54
2022-08-25T12:57:57.946Z,28.52
2022-08-25T13:00:51.199Z,28.39
2022-08-25T13:04:00.583Z,28.50
2022-08-25T13:07:01.979Z,28.53
2022-08-25T13:09:50.911Z,28.43
2022-08-25T13:12:37.932Z,28.44
2022-08-25T13:15:05.941Z,28.51
2022-08-25T13:17:35.955Z,28.66
2022-08-25T13:20:15.249Z,28.88
2022-08-25T13:22:55.361Z,29.07
2022-08-25T13:25:32.309Z,29.20
2022-08-25T13:28:05.257Z,29.32
2022-08-25T13:30:37.371Z,29.47
2022-08-25T13:33:23.933Z,29.59
2022-08-25T13:36:16.473Z,29.50
2022-08-25T13:38:48.244Z,29.41
2022-08-25T13:41:28.764Z,29.27
2022-08-25T13:43:59.773Z,29.14
2022-08-25T13:46:29.159Z,29.11
2022-08-25T13:49:08.670Z,29.17
2022-08-25T13:51:39.743Z,29.41
2022-08-25T13:54:24.792Z,29.36
2022-08-25T13:56:52.932Z,29.23
2022-08-25T13:59:25.929Z,29.15
2022-08-25T14:01:55.762Z,29.03
2022-08-25T14:04:50.731Z,28.97
2022-08-25T14:07:33.668Z,28.92
2022-08-25T14:10:30.955Z,28.84
2022-08-25T14:13:34.955Z,28.80
2022-08-25T14:16:22.982Z,28.81
2022-08-25T14:18:58.877Z,28.96
2022-08-25T14:21:32.670Z,29.15
2022-08-25T14:24:04.154Z,29.41
2022-08-25T14:26:31.730Z,29.56
2022-08-25T14:28:59.641Z,29.77
2022-08-25T14:31:36.261Z,29.95
2022-08-25T14:34:12.829Z,30.06
2022-08-25T14:36:41.243Z,30.18
2022-08-25T14:39:12.897Z,30.29
2022-08-25T14:41:47.540Z,30.39
2022-08-25T14:44:21.549Z,30.47
2022-08-25T14:46:57.693Z,30.50
2022-08-25T14:49:33.816Z,30.49
2022-08-25T14:52:16.492Z,30.47
2022-08-25T14:54:45.017Z,30.47
2022-08-25T14:57:14.406Z,30.47
2022-08-25T14:59:43.319Z,30.42
2022-08-25T15:02:19.927Z,30.37
2022-08-25T15:04:54.228Z,30.34
2022-08-25T15:07:40.559Z,30.17
2022-08-25T15:10:09.669Z,30.01
2022-08-25T15:12:47.724Z,29.88
2022-08-25T15:15:16.058Z,29.82
2022-08-25T15:17:46.723Z,29.66
2022-08-25T15:20:17.137Z,29.55
2022-08-25T15:22:45.615Z,29.45
2022-08-25T15:25:13.825Z,29.33
2022-08-25T15:27:41.644Z,29.25
2022-08-25T15:30:10.530Z,29.15
2022-08-25T15:32:41.251Z,29.09
2022-08-25T15:35:11.027Z,29.04
2022-08-25T15:37:42.970Z,29.07
2022-08-25T15:40:11.241Z,29.10
2022-08-25T15:42:42.799Z,29.16
2022-08-25T15:45:14.593Z,29.13
2022-08-25T15:47:42.576Z,29.05
2022-08-25T15:50:17.726Z,28.97
2022-08-25T15:52:47.559Z,28.87
2022-08-25T15:55:17.937Z,28.81
2022-08-25T15:57:49.714Z,28.79
2022-08-25T16:00:19.289Z,28.76
2022-08-25T16:02:49.900Z,28.74
2022-08-25T16:05:18.426Z,28.72
2022-08-25T16:07:51.501Z,28.64
2022-08-25T16:10:19.905Z,28.54
2022-08-25T16:12:48.017Z,28.46
2022-08-25T16:15:16.182Z,28.40
2022-08-25T16:17:46.964Z,28.37
2022-08-25T16:20:19.611Z,28.31
2022-08-25T16:22:48.111Z,28.27
2022-08-25T16:25:16.345Z,28.24
2022-08-25T16:27:45.581Z,28.22
2022-08-25T16:30:17.396Z,28.23
2022-08-25T16:32:46.685Z,28.17
2022-08-25T16:35:14.769Z,28.12
2022-08-25T16:37:42.674Z,28.06
2022-08-25T16:40:14.739Z,27.97
2022-08-25T16:42:42.897Z,27.87
2022-08-25T16:45:11.959Z,27.81
2022-08-25T16:47:39.714Z,27.63
2022-08-25T16:50:11.447Z,27.54
2022-08-25T16:52:59.426Z,27.45
2022-08-25T16:55:39.433Z,27.39
2022-08-25T16:58:13.437Z,27.35
2022-08-25T17:00:43.882Z,27.31
2022-08-25T17:03:13.159Z,27.23
2022-08-25T17:05:43.085Z,27.15
2022-08-25T17:08:30.742Z,27.06
2022-08-25T17:11:11.404Z,26.98
2022-08-25T17:13:45.707Z,26.92
2022-08-25T17:16:14.909Z,26.83
2022-08-25T17:18:44.837Z,26.76
2022-08-25T17:21:24.327Z,26.68
2022-08-25T17:23:55.852Z,26.57
2022-08-25T17:26:28.085Z,26.47
2022-08-25T17:28:59.427Z,26.39
2022-08-25T17:31:30.059Z,26.31
2022-08-25T17:33:58.791Z,26.23
2022-08-25T17:36:27.525Z,26.14
2022-08-25T17:38:57.027Z,26.02
2022-08-25T17:41:25.999Z,25.94
2022-08-25T17:43:53.772Z,25.84
2022-08-25T17:46:21.960Z,25.78
2022-08-25T17:48:49.942Z,25.70
2022-08-25T17:51:17.982Z,25.63
2022-08-25T17:53:46.939Z,25.55
2022-08-25T17:56:18.649Z,25.49
2022-08-25T17:58:47.372Z,25.43
2022-08-25T18:01:31.799Z,25.37
2022-08-25T18:03:59.739Z,25.27
2022-08-25T18:06:31.094Z,25.19
2022-08-25T18:09:01.560Z,25.10
2022-08-25T18:11:30.386Z,25.02
2022-08-25T18:13:58.662Z,24.94
2022-08-25T18:16:27.360Z,24.88
2022-08-25T18:18:55.936Z,24.82
2022-08-25T18:21:25.614Z,24.76
2022-08-25T18:23:59.177Z,24.74
2022-08-25T18:26:27.484Z,24.67
2022-08-25T18:28:55.877Z,24.63
2022-08-25T18:31:23.804Z,24.62
2022-08-25T18:33:52.265Z,24.57
2022-08-25T18:36:21.030Z,24.48
2022-08-25T18:39:08.978Z,24.41
2022-08-25T18:41:41.304Z,24.37
2022-08-25T18:44:11.004Z,24.31
2022-08-25T18:46:40.222Z,24.29
2022-08-25T18:49:09.076Z,24.28
2022-08-25T18:51:37.890Z,24.28
2022-08-25T18:54:06.543Z,24.19
2022-08-25T18:56:35.127Z,24.11
2022-08-25T18:59:04.375Z,24.05
2022-08-25T19:01:32.238Z,23.99
2022-08-25T19:04:00.512Z,23.93
2022-08-25T19:06:30.641Z,23.88
2022-08-25T19:09:00.083Z,23.81
2022-08-25T19:11:27.825Z,23.79
2022-08-25T19:13:57.658Z,23.75
2022-08-25T19:16:40.141Z,23.77
2022-08-25T19:19:13.298Z,23.76
2022-08-25T19:21:42.633Z,23.74
2022-08-25T19:24:13.083Z,23.67
2022-08-25T19:26:41.668Z,23.60
2022-08-25T19:29:14.713Z,23.55
2022-08-25T19:31:45.532Z,23.51
2022-08-25T19:34:24.233Z,23.49
2022-08-25T19:36:58.592Z,23.48
2022-08-25T19:39:26.527Z,23.44
2022-08-25T19:41:54.390Z,23.42
2022-08-25T19:44:23.482Z,23.35
2022-08-25T19:46:53.738Z,23.30
2022-08-25T19:49:27.535Z,23.26
2022-08-25T19:52:03.110Z,23.21
2022-08-25T19:54:44.306Z,23.24
2022-08-25T19:57:27.868Z,23.23
2022-08-25T19:59:56.534Z,23.24
2022-08-25T20:02:28.203Z,23.23
2022-08-25T20:05:00.128Z,23.25
2022-08-25T20:07:31.561Z,23.20
2022-08-25T20:10:01.562Z,23.14
2022-08-25T20:12:29.379Z,23.12
2022-08-25T20:14:57.817Z,23.07
2022-08-25T20:17:26.205Z,23.04
2022-08-25T20:19:59.673Z,23.01
2022-08-25T20:22:31.698Z,23.02
2022-08-25T20:25:19.907Z,23.00
2022-08-25T20:27:52.349Z,22.97
2022-08-25T20:30:29.602Z,22.90
2022-08-25T20:32:58.609Z,22.83
2022-08-25T20:35:28.472Z,22.82
2022-08-25T20:37:59.424Z,22.84
2022-08-25T20:40:30.129Z,22.82
2022-08-25T20:43:03.112Z,22.75
2022-08-25T20:45:31.594Z,22.73
2022-08-25T20:48:00.077Z,22.70
2022-08-25T20:50:28.091Z,22.70
2022-08-25T20:52:58.794Z,22.68
2022-08-25T20:55:27.865Z,22.66
2022-08-25T20:57:56.294Z,22.62
2022-08-25T21:00:24.858Z,22.64
2022-08-25T21:02:53.458Z,22.61
2022-08-25T21:05:21.533Z,22.61
2022-08-25T21:07:49.425Z,22.52
2022-08-25T21:10:18.041Z,22.48
2022-08-25T21:12:45.977Z,22.45
2022-08-25T21:15:18.005Z,22.42
2022-08-25T21:17:54.342Z,22.38
2022-08-25T21:20:24.187Z,22.32
2022-08-25T21:22:53.445Z,22.27
2022-08-25T21:25:21.877Z,22.23
2022-08-25T21:27:49.581Z,22.20
2022-08-25T21:30:18.239Z,22.17
2022-08-25T21:32:52.903Z,22.13
2022-08-25T21:35:23.956Z,22.07
2022-08-25T21:37:53.828Z,21.97
2022-08-25T21:40:23.194Z,21.97
2022-08-25T21:42:52.499Z,21.96
2022-08-25T21:45:21.864Z,21.95
2022-08-25T21:47:50.120Z,21.93
2022-08-25T21:50:20.262Z,21.92
2022-08-25T21:52:48.371Z,21.91
2022-08-25T21:55:23.204Z,21.87
2022-08-25T21:57:51.521Z,21.83
2022-08-25T22:00:21.232Z,21.80
2022-08-25T22:02:50.211Z,21.77
2022-08-25T22:05:18.245Z,21.75
2022-08-25T22:07:45.970Z,21.72
2022-08-25T22:10:17.990Z,21.67
2022-08-25T22:12:48.330Z,21.64
2022-08-25T22:15:17.926Z,21.66
2022-08-25T22:17:48.127Z,21.64
2022-08-25T22:20:18.050Z,21.62
2022-08-25T22:22:46.204Z,21.58
2022-08-25T22:25:14.113Z,21.55
2022-08-25T22:27:42.398Z,21.53
2022-08-25T22:30:11.413Z,21.50
2022-08-25T22:32:39.422Z,21.51
2022-08-25T22:35:08.142Z,21.50
2022-08-25T22:37:37.428Z,21.49
2022-08-25T22:40:06.057Z,21.49
2022-08-25T22:42:33.859Z,21.48
2022-08-25T22:45:01.621Z,21.47
2022-08-25T22:47:29.459Z,21.48
2022-08-25T22:49:59.170Z,21.46
2022-08-25T22:52:31.963Z,21.45
2022-08-25T22:55:02.871Z,21.43
2022-08-25T22:57:30.753Z,21.42
2022-08-25T22:59:59.354Z,21.39
2022-08-25T23:02:30.256Z,21.37
2022-08-25T23:04:58.213Z,21.33
2022-08-25T23:07:29.509Z,21.30
2022-08-25T23:10:02.567Z,21.26
2022-08-25T23:12:30.750Z,21.14
2022-08-25T23:14:58.479Z,21.13
2022-08-25T23:17:29.229Z,21.15
2022-08-25T23:19:56.963Z,21.14
2022-08-25T23:22:24.665Z,21.12
2022-08-25T23:24:54.873Z,21.12
2022-08-25T23:27:22.679Z,21.10
2022-08-25T23:29:51.277Z,21.07
2022-08-25T23:32:19.063Z,21.03
2022-08-25T23:34:47.402Z,21.06
2022-08-25T23:37:16.299Z,21.04
2022-08-25T23:39:49.391Z,21.01
2022-08-25T23:42:19.800Z,21.05
2022-08-25T23:44:49.689Z,21.05
2022-08-25T23:47:18.796Z,21.05
2022-08-25T23:49:48.256Z,21.04
2022-08-25T23:52:17.525Z,20.99
2022-08-25T23:54:47.837Z,20.97
2022-08-25T23:57:15.786Z,20.90
2022-08-25T23:59:43.561Z,20.85
